Time;durP1;ratioP1;P1;durP2;ratioP2;P2;SDS_P1;SDS_P2;PMS_P1;PMS_P2;Temp;Humidity;BMP_temperature;BMP_pressure;BME280_temperature;BME280_humidity;BME280_pressure;Samples;Min_cycle;Max_cycle;Signal;HPM_P1;HPM_P2
2022/12/18 00:01:24;;;;;;;40.97;23.83;;;1.60;77.60;0.90;97390.00;;;;5079272;28;20439;-86
2022/12/18 00:03:52;;;;;;;39.50;23.27;;;1.60;77.50;0.90;97394.00;;;;5079817;28;20485;-86
2022/12/18 00:06:21;;;;;;;36.30;21.70;;;1.60;77.40;1.00;97395.00;;;;5078533;28;20438;-86
2022/12/18 00:08:49;;;;;;;37.50;20.93;;;1.60;77.30;1.00;97393.00;;;;5080845;28;21079;-86
2022/12/18 00:11:19;;;;;;;39.13;21.33;;;1.60;77.10;1.00;97402.00;;;;5076425;28;20916;-87
2022/12/18 00:13:49;;;;;;;37.83;21.63;;;1.60;77.00;1.00;97409.00;;;;5081015;28;20480;-86
2022/12/18 00:16:20;;;;;;;34.10;21.33;;;1.60;77.00;1.00;97421.00;;;;5079066;28;20516;-86
2022/12/18 00:18:48;;;;;;;39.50;21.83;;;1.60;76.90;0.90;97413.00;;;;5082720;28;20481;-87
2022/12/18 00:21:16;;;;;;;35.37;20.53;;;1.60;77.00;1.00;97416.00;;;;5081923;28;20474;-86
2022/12/18 00:23:48;;;;;;;34.10;19.90;;;1.60;76.90;1.00;97412.00;;;;5078552;28;20569;-86
2022/12/18 00:26:17;;;;;;;35.17;20.17;;;1.60;76.80;1.00;97409.00;;;;5081773;28;20443;-86
2022/12/18 00:28:47;;;;;;;34.60;19.87;;;1.60;76.90;1.00;97424.00;;;;5081035;28;20472;-86
2022/12/18 00:31:18;;;;;;;36.10;20.33;;;1.60;76.80;1.00;97418.00;;;;5083094;28;20442;-86
2022/12/18 00:33:46;;;;;;;34.37;20.53;;;1.60;76.70;1.00;97424.00;;;;5080291;28;20550;-86
2022/12/18 00:36:16;;;;;;;32.80;20.37;;;1.60;76.60;1.00;97423.00;;;;5080684;28;20478;-86
2022/12/18 00:38:43;;;;;;;35.20;21.07;;;1.60;76.70;1.00;97433.00;;;;5078390;28;20513;-86
2022/12/18 00:41:13;;;;;;;33.37;20.13;;;1.60;76.70;1.00;97419.00;;;;5077977;28;20446;-86
2022/12/18 00:43:40;;;;;;;33.30;19.70;;;1.60;76.70;1.00;97420.00;;;;5081006;28;20519;-87
2022/12/18 00:46:09;;;;;;;35.43;21.37;;;1.60;76.80;0.90;97405.00;;;;5077344;28;20464;-86
2022/12/18 00:48:36;;;;;;;34.13;19.87;;;1.60;76.90;1.00;97420.00;;;;5079678;28;20466;-87
2022/12/18 00:51:03;;;;;;;37.10;19.87;;;1.60;76.80;1.00;97421.00;;;;5077752;28;20559;-83
2022/12/18 00:53:31;;;;;;;33.53;19.07;;;1.60;76.90;1.00;97410.00;;;;5079597;28;20917;-84
2022/12/18 00:55:58;;;;;;;35.73;19.73;;;1.60;77.00;1.00;97420.00;;;;5078526;28;20476;-86
2022/12/18 00:58:26;;;;;;;33.30;19.80;;;0.90;76.70;1.00;97424.00;;;;5083210;28;20489;-83
2022/12/18 01:00:53;;;;;;;33.93;19.43;;;1.60;77.00;1.00;97421.00;;;;5087476;28;20514;-84
2022/12/18 01:03:22;;;;;;;33.67;19.87;;;1.60;77.10;1.00;97432.00;;;;5084684;28;20542;-85
2022/12/18 01:05:49;;;;;;;35.90;20.23;;;1.60;77.00;1.00;97429.00;;;;5079845;28;20522;-82
2022/12/18 01:08:16;;;;;;;34.13;19.87;;;1.60;77.00;1.00;97442.00;;;;5076832;28;20469;-83
2022/12/18 01:10:43;;;;;;;30.77;19.17;;;1.60;77.00;1.00;97446.00;;;;5079256;28;20526;-85
2022/12/18 01:13:11;;;;;;;33.50;19.57;;;1.70;76.80;1.00;97440.00;;;;5075054;28;20501;-84
2022/12/18 01:15:38;;;;;;;35.40;21.30;;;1.60;76.80;1.10;97438.00;;;;5076473;28;21038;-84
2022/12/18 01:18:05;;;;;;;33.60;20.43;;;1.70;77.00;1.10;97435.00;;;;5078001;28;20548;-84
2022/12/18 01:20:34;;;;;;;35.40;20.23;;;1.70;77.10;1.10;97441.00;;;;5076466;28;21079;-85
2022/12/18 01:23:01;;;;;;;37.00;21.50;;;1.70;77.20;1.10;97449.00;;;;5073717;28;20585;-83
2022/12/18 01:25:28;;;;;;;33.17;19.10;;;1.70;77.10;1.10;97442.00;;;;5075734;28;20516;-83
2022/12/18 01:27:55;;;;;;;35.87;20.40;;;1.70;77.20;1.10;97451.00;;;;5077137;28;20516;-83
2022/12/18 01:30:23;;;;;;;37.00;21.03;;;1.70;77.20;1.10;97446.00;;;;5077608;28;20451;-85
2022/12/18 01:32:50;;;;;;;34.57;20.07;;;1.70;77.30;1.20;97456.00;;;;5087740;28;20489;-86
2022/12/18 01:35:18;;;;;;;32.87;19.27;;;1.70;77.50;1.20;97463.00;;;;5078002;28;20536;-86
2022/12/18 01:37:46;;;;;;;38.27;21.60;;;1.80;77.60;1.20;97472.00;;;;5078308;28;20476;-87
2022/12/18 01:40:14;;;;;;;39.57;19.87;;;1.80;77.60;1.20;97482.00;;;;5081302;28;20434;-86
2022/12/18 01:42:41;;;;;;;38.60;21.00;;;2.20;77.80;1.30;97483.00;;;;5081540;28;20920;-86
2022/12/18 01:45:27;;;;;;;41.33;22.23;;;1.80;77.50;1.20;97483.00;;;;5080672;28;20895;-86
2022/12/18 01:47:57;;;;;;;40.17;21.83;;;1.90;77.20;1.30;97490.00;;;;5079489;28;20891;-86
2022/12/18 01:50:30;;;;;;;35.70;21.37;;;1.80;77.30;1.30;97491.00;;;;5080896;28;21323;-86
2022/12/18 01:53:07;;;;;;;36.80;21.13;;;1.90;77.60;1.30;97495.00;;;;5077086;28;20533;-86
2022/12/18 01:55:41;;;;;;;33.70;20.20;;;1.90;77.70;1.40;97499.00;;;;5081638;28;20987;-86
2022/12/18 01:58:08;;;;;;;35.87;20.53;;;1.90;77.70;1.30;97505.00;;;;5074478;28;20484;-85
2022/12/18 02:00:36;;;;;;;36.07;21.70;;;1.90;77.70;1.40;97500.00;;;;5080678;28;20503;-86
2022/12/18 02:03:03;;;;;;;33.83;20.20;;;1.90;77.60;1.40;97495.00;;;;5073854;28;20574;-86
2022/12/18 02:05:45;;;;;;;31.47;18.90;;;2.00;77.60;1.40;97496.00;;;;5079498;28;20582;-85
2022/12/18 02:08:22;;;;;;;32.30;19.03;;;2.00;77.30;1.40;97486.00;;;;5082033;28;20561;-86
2022/12/18 02:11:00;;;;;;;32.33;19.70;;;2.00;77.50;1.40;97483.00;;;;5079178;28;20503;-87
2022/12/18 02:13:41;;;;;;;33.77;20.40;;;2.00;77.60;1.50;97482.00;;;;5080621;28;20569;-86
2022/12/18 02:16:22;;;;;;;33.20;19.07;;;2.00;77.60;1.50;97472.00;;;;5080591;28;20544;-86
2022/12/18 02:18:55;;;;;;;32.80;20.33;;;2.00;77.60;1.50;97472.00;;;;5081943;28;20551;-86
2022/12/18 02:21:36;;;;;;;34.90;19.77;;;2.00;77.60;1.50;97473.00;;;;5081812;28;20519;-86
2022/12/18 02:24:22;;;;;;;34.03;19.93;;;2.10;77.40;1.50;97471.00;;;;5081477;28;20489;-86
2022/12/18 02:26:56;;;;;;;34.57;19.00;;;2.10;77.30;1.50;97471.00;;;;5080658;28;20454;-86
2022/12/18 02:29:30;;;;;;;31.77;19.77;;;2.10;77.40;1.50;97473.00;;;;5079676;28;20552;-86
2022/12/18 02:32:01;;;;;;;35.47;19.43;;;2.10;77.30;1.50;97463.00;;;;5081411;28;20485;-87
2022/12/18 02:34:35;;;;;;;33.47;18.67;;;2.10;77.10;1.50;97469.00;;;;5079492;28;20694;-86
2022/12/18 02:37:08;;;;;;;35.17;19.17;;;2.10;77.10;1.50;97479.00;;;;5081609;28;20486;-86
2022/12/18 02:39:38;;;;;;;35.07;20.33;;;2.10;77.10;1.50;97475.00;;;;5082434;28;20462;-87
2022/12/18 02:42:07;;;;;;;32.13;19.80;;;2.10;77.20;1.50;97469.00;;;;5080802;28;20500;-86
2022/12/18 02:44:36;;;;;;;33.03;19.20;;;2.10;77.30;1.50;97467.00;;;;5084672;28;20493;-87
2022/12/18 02:47:03;;;;;;;34.63;20.37;;;2.10;77.30;1.50;97475.00;;;;5084098;28;20438;-86
2022/12/18 02:49:42;;;;;;;31.40;18.77;;;2.10;77.50;1.50;97469.00;;;;5079780;28;20550;-86
2022/12/18 02:52:26;;;;;;;34.10;20.00;;;2.10;77.40;1.50;97467.00;;;;5083597;28;20524;-86
2022/12/18 02:55:09;;;;;;;29.53;17.80;;;2.10;77.30;1.50;97471.00;;;;5081602;28;20529;-87
2022/12/18 02:57:47;;;;;;;32.33;18.63;;;2.10;77.40;1.60;97473.00;;;;5081282;28;20545;-86
2022/12/18 03:00:21;;;;;;;30.50;17.87;;;2.10;77.30;1.60;97479.00;;;;5078295;28;20457;-86
2022/12/18 03:02:56;;;;;;;31.60;18.53;;;2.10;77.50;1.60;97484.00;;;;5083195;28;20472;-86
2022/12/18 03:05:31;;;;;;;30.30;17.67;;;2.20;77.50;1.60;97475.00;;;;5083326;28;20943;-86
2022/12/18 03:08:04;;;;;;;28.57;17.50;;;2.20;77.40;1.60;97454.00;;;;5082911;28;20583;-86
2022/12/18 03:10:39;;;;;;;32.10;19.17;;;2.20;77.50;1.60;97459.00;;;;5082018;28;20531;-87
2022/12/18 03:13:14;;;;;;;28.70;18.23;;;2.20;77.50;1.60;97453.00;;;;5083000;28;20962;-86
2022/12/18 03:15:47;;;;;;;29.07;17.80;;;2.20;77.60;1.70;97463.00;;;;5079198;28;20886;-86
2022/12/18 03:18:21;;;;;;;30.40;17.83;;;2.20;77.60;1.70;97462.00;;;;5079820;28;20560;-85
2022/12/18 03:20:52;;;;;;;27.23;17.00;;;2.20;77.40;1.60;97464.00;;;;5081745;28;20874;-86
2022/12/18 03:23:23;;;;;;;26.37;15.90;;;2.20;77.20;1.60;97461.00;;;;5084241;28;20501;-86
2022/12/18 03:25:55;;;;;;;30.70;17.63;;;2.20;76.90;1.60;97466.00;;;;5080347;28;21287;-86
2022/12/18 03:28:24;;;;;;;30.50;17.87;;;2.20;77.00;1.60;97462.00;;;;5081026;28;20481;-86
2022/12/18 03:30:59;;;;;;;31.13;18.97;;;2.20;77.20;1.60;97465.00;;;;5081285;28;20933;-86
2022/12/18 03:33:32;;;;;;;31.30;18.30;;;2.20;77.40;1.60;97467.00;;;;5082476;28;20860;-86
2022/12/18 03:35:59;;;;;;;28.17;17.47;;;2.20;77.40;1.60;97469.00;;;;5080000;28;21084;-87
2022/12/18 03:38:27;;;;;;;24.80;15.67;;;2.20;77.40;1.60;97466.00;;;;5076856;28;21210;-86
2022/12/18 03:41:04;;;;;;;22.43;14.60;;;2.20;77.50;1.60;97482.00;;;;5079402;28;20517;-87
2022/12/18 03:43:48;;;;;;;24.70;14.50;;;2.20;77.40;1.60;97478.00;;;;5080324;28;20928;-87
2022/12/18 03:46:27;;;;;;;24.00;15.33;;;2.20;77.20;1.60;97473.00;;;;5078040;28;20496;-86
2022/12/18 03:49:07;;;;;;;23.20;13.63;;;2.20;76.80;1.50;97472.00;;;;5073116;28;20576;-87
2022/12/18 03:51:43;;;;;;;19.47;12.97;;;2.30;76.70;1.50;97466.00;;;;5081589;28;20446;-86
2022/12/18 03:54:12;;;;;;;21.10;13.37;;;2.20;76.30;1.40;97468.00;;;;5078211;28;20445;-86
2022/12/18 03:56:49;;;;;;;22.10;14.73;;;2.20;76.40;1.40;97462.00;;;;5078890;28;21439;-85
2022/12/18 03:59:20;;;;;;;24.03;14.63;;;2.10;76.30;1.40;97470.00;;;;5080587;28;21035;-86
2022/12/18 04:01:51;;;;;;;23.80;14.63;;;2.10;76.40;1.40;97466.00;;;;5078943;28;20571;-86
2022/12/18 04:04:20;;;;;;;25.57;16.00;;;2.10;76.20;1.30;97460.00;;;;5078365;28;21122;-86
2022/12/18 04:06:50;;;;;;;30.53;16.07;;;2.00;76.30;1.40;97471.00;;;;5081524;28;20449;-85
2022/12/18 04:09:18;;;;;;;29.33;16.87;;;2.00;76.60;1.40;97469.00;;;;5083998;28;20545;-85
2022/12/18 04:11:47;;;;;;;27.07;16.47;;;2.00;76.90;1.40;97473.00;;;;5081557;28;20533;-86
2022/12/18 04:14:14;;;;;;;32.53;18.73;;;2.00;77.00;1.40;97471.00;;;;5081820;28;20486;-86
2022/12/18 04:16:43;;;;;;;31.20;17.50;;;2.00;77.20;1.40;97468.00;;;;5083276;28;20972;-87
2022/12/18 04:19:10;;;;;;;30.17;18.30;;;2.00;77.40;1.40;97477.00;;;;5080039;28;20564;-86
2022/12/18 04:21:37;;;;;;;27.83;16.33;;;2.00;77.30;1.50;97485.00;;;;5080224;28;20516;-86
2022/12/18 04:24:05;;;;;;;28.17;17.17;;;2.00;77.40;1.50;97488.00;;;;5079879;28;21197;-86
2022/12/18 04:26:32;;;;;;;30.33;17.17;;;2.00;77.60;1.50;97484.00;;;;5079949;28;20492;-86
2022/12/18 04:28:59;;;;;;;33.20;18.37;;;2.10;77.50;1.50;97478.00;;;;5080911;28;20522;-86
2022/12/18 04:31:28;;;;;;;31.10;18.43;;;2.10;77.60;1.60;97470.00;;;;5082799;28;20893;-85
2022/12/18 04:33:57;;;;;;;28.70;16.93;;;2.10;77.70;1.60;97473.00;;;;5077741;28;20533;-86
2022/12/18 04:36:24;;;;;;;29.17;16.93;;;2.10;77.60;1.60;97467.00;;;;5082519;28;20485;-87
2022/12/18 04:38:51;;;;;;;25.33;15.60;;;2.10;77.60;1.60;97482.00;;;;5079313;28;20991;-86
2022/12/18 04:41:18;;;;;;;28.60;17.03;;;2.20;77.50;1.60;97495.00;;;;5080683;28;20995;-86
2022/12/18 04:43:45;;;;;;;26.27;14.87;;;2.20;77.40;1.60;97511.00;;;;5080869;28;20596;-85
2022/12/18 04:46:13;;;;;;;26.87;15.77;;;2.20;77.50;1.70;97510.00;;;;5081200;28;20536;-86
2022/12/18 04:48:40;;;;;;;22.37;14.87;;;2.20;77.50;1.70;97502.00;;;;5077703;28;21329;-87
2022/12/18 04:51:08;;;;;;;24.97;14.57;;;2.20;77.50;1.70;97519.00;;;;5080210;28;20546;-86
2022/12/18 04:53:36;;;;;;;23.80;15.57;;;2.20;77.40;1.70;97520.00;;;;5080119;28;20565;-86
2022/12/18 04:56:08;;;;;;;26.47;15.90;;;2.20;77.30;1.70;97517.00;;;;5081910;28;20441;-86
2022/12/18 04:58:36;;;;;;;27.17;15.50;;;2.20;77.70;1.70;97520.00;;;;5082586;28;20559;-86
2022/12/18 05:01:03;;;;;;;27.43;15.43;;;2.20;77.50;1.70;97526.00;;;;5081718;28;20474;-86
2022/12/18 05:03:34;;;;;;;23.63;13.37;;;2.30;77.60;1.70;97516.00;;;;5080974;28;20505;-86
2022/12/18 05:09:36;;;;;;;17.70;11.53;;;2.30;76.40;1.60;97495.00;;;;5091745;22;21010;-92
2022/12/18 05:12:04;;;;;;;21.87;14.17;;;2.20;76.70;1.60;97511.00;;;;5075900;28;20537;-92
2022/12/18 05:14:32;;;;;;;22.57;13.97;;;2.20;77.00;1.60;97513.00;;;;5076398;28;20818;-91
2022/12/18 05:16:59;;;;;;;27.53;15.67;;;2.60;77.10;1.60;97494.00;;;;5076201;28;20459;-91
2022/12/18 05:19:26;;;;;;;26.73;14.80;;;2.20;76.90;1.60;97522.00;;;;5077564;28;20472;-91
2022/12/18 05:21:55;;;;;;;29.53;15.97;;;2.60;77.50;1.60;97530.00;;;;5075926;28;20865;-92
2022/12/18 05:24:22;;;;;;;28.53;16.53;;;3.50;78.00;1.60;97499.00;;;;5074381;28;20570;-92
2022/12/18 05:26:49;;;;;;;29.50;17.10;;;3.30;77.90;1.70;97493.00;;;;5074777;28;20548;-90
2022/12/18 05:29:16;;;;;;;31.20;18.73;;;3.00;77.80;1.70;97513.00;;;;5075948;28;20500;-91
2022/12/18 05:31:43;;;;;;;28.03;17.57;;;2.60;77.60;1.70;97520.00;;;;5075476;28;20972;-91
2022/12/18 05:34:11;;;;;;;27.57;16.30;;;2.10;77.20;1.70;97522.00;;;;5075950;28;20470;-91
2022/12/18 05:36:38;;;;;;;28.90;16.40;;;2.40;77.30;1.70;97526.00;;;;5073418;28;20563;-90
2022/12/18 05:39:07;;;;;;;31.13;15.67;;;2.40;77.80;1.70;97530.00;;;;5074323;28;20473;-91
2022/12/18 05:41:34;;;;;;;26.63;16.37;;;2.40;77.30;1.70;97526.00;;;;5072854;28;20440;-89
2022/12/18 05:44:02;;;;;;;25.60;16.10;;;2.30;77.10;1.70;97531.00;;;;5073124;28;20545;-90
2022/12/18 05:46:30;;;;;;;24.43;14.73;;;2.30;77.10;1.70;97527.00;;;;5076454;28;20498;-91
2022/12/18 05:49:00;;;;;;;26.70;16.27;;;2.50;77.20;1.70;97534.00;;;;5073527;28;20597;-90
2022/12/18 05:51:28;;;;;;;28.43;16.47;;;2.30;77.20;1.70;97532.00;;;;5072034;28;21014;-90
2022/12/18 05:53:56;;;;;;;24.60;15.50;;;2.50;77.30;1.80;97545.00;;;;5075932;28;20466;-91
2022/12/18 05:56:24;;;;;;;25.77;15.53;;;2.60;77.40;1.70;97530.00;;;;5073128;28;20466;-91
2022/12/18 05:58:54;;;;;;;26.03;15.83;;;2.90;77.30;1.70;97542.00;;;;5074276;28;20507;-90
2022/12/18 06:01:25;;;;;;;25.63;15.70;;;3.00;78.30;1.80;97551.00;;;;5069323;28;20494;-91
2022/12/18 06:03:52;;;;;;;24.50;14.53;;;2.40;77.10;1.70;97552.00;;;;5069353;28;20569;-90
2022/12/18 06:06:22;;;;;;;23.77;14.50;;;2.30;77.00;1.70;97552.00;;;;5077105;28;20445;-90
2022/12/18 06:08:50;;;;;;;23.60;14.50;;;2.30;77.00;1.80;97554.00;;;;5072264;28;20827;-91
2022/12/18 06:11:20;;;;;;;21.97;13.37;;;2.30;77.10;1.70;97556.00;;;;5078765;28;20533;-91
2022/12/18 06:13:52;;;;;;;20.50;13.13;;;2.40;77.10;1.70;97548.00;;;;5077401;28;20489;-91
2022/12/18 06:16:19;;;;;;;20.57;12.60;;;3.10;77.30;1.70;97544.00;;;;5078554;28;20981;-90
2022/12/18 06:18:47;;;;;;;22.70;12.60;;;3.20;77.30;1.70;97544.00;;;;5075225;28;20537;-92
2022/12/18 06:21:14;;;;;;;20.63;12.37;;;2.30;76.80;1.70;97547.00;;;;5074830;28;21041;-92
2022/12/18 06:23:41;;;;;;;20.33;12.57;;;2.30;76.80;1.70;97533.00;;;;5077327;28;20896;-92
2022/12/18 06:26:11;;;;;;;23.00;13.00;;;2.30;76.80;1.70;97556.00;;;;5073984;28;20457;-90
2022/12/18 06:28:38;;;;;;;21.00;12.90;;;3.40;77.40;1.70;97536.00;;;;5073963;28;21003;-91
2022/12/18 06:31:08;;;;;;;21.83;13.07;;;3.60;77.40;1.70;97550.00;;;;5079130;28;20453;-90
2022/12/18 06:33:36;;;;;;;23.87;14.87;;;2.90;77.00;1.70;97556.00;;;;5077689;28;20554;-91
2022/12/18 06:36:06;;;;;;;21.33;13.07;;;2.30;76.80;1.70;97554.00;;;;5073659;28;20470;-91
2022/12/18 06:38:36;;;;;;;23.33;14.57;;;2.30;77.00;1.70;97555.00;;;;5077334;28;20465;-91
2022/12/18 06:41:08;;;;;;;22.47;14.63;;;2.30;77.00;1.70;97558.00;;;;5074108;28;20476;-92
2022/12/18 06:43:39;;;;;;;25.43;15.07;;;2.30;76.70;1.70;97552.00;;;;5076864;28;20440;-92
2022/12/18 06:46:08;;;;;;;24.47;14.80;;;2.40;76.90;1.70;97573.00;;;;5073693;28;20544;-93
2022/12/18 06:48:35;;;;;;;24.07;14.53;;;2.30;76.80;1.70;97577.00;;;;5076256;28;20498;-93
2022/12/18 06:51:08;;;;;;;22.33;13.67;;;2.20;76.80;1.70;97572.00;;;;5077285;28;20545;-91
2022/12/18 06:53:35;;;;;;;20.30;13.70;;;2.40;77.00;1.70;97588.00;;;;5077047;28;20453;-91
2022/12/18 06:56:04;;;;;;;22.23;13.53;;;2.20;76.70;1.70;97575.00;;;;5075647;28;20453;-90
2022/12/18 06:58:32;;;;;;;21.37;13.60;;;2.30;76.80;1.70;97581.00;;;;5078872;28;20568;-93
2022/12/18 07:01:02;;;;;;;22.30;13.53;;;2.30;77.00;1.80;97584.00;;;;5080338;28;20466;-90
2022/12/18 07:03:31;;;;;;;25.57;14.07;;;2.50;77.00;1.90;97577.00;;;;5079017;28;20547;-89
2022/12/18 07:05:58;;;;;;;21.73;13.33;;;2.80;77.00;1.90;97590.00;;;;5077136;28;20485;-89
2022/12/18 07:08:25;;;;;;;24.87;14.33;;;2.30;76.60;1.90;97592.00;;;;5075585;28;20485;-88
2022/12/18 07:10:53;;;;;;;23.83;14.27;;;2.30;76.60;2.00;97593.00;;;;5075454;28;20500;-89
2022/12/18 07:13:20;;;;;;;22.63;14.33;;;3.70;77.60;2.00;97596.00;;;;5077076;28;20882;-90
2022/12/18 07:15:48;;;;;;;21.80;13.80;;;3.70;77.70;2.00;97618.00;;;;5076447;28;20556;-88
2022/12/18 07:18:15;;;;;;;24.13;14.33;;;2.50;76.70;1.90;97620.00;;;;5075025;28;21034;-89
2022/12/18 07:20:44;;;;;;;20.27;12.23;;;3.50;77.10;1.90;97618.00;;;;5079093;28;20827;-89
2022/12/18 07:23:12;;;;;;;20.50;12.27;;;2.90;76.20;1.80;97625.00;;;;5075432;28;20458;-88
2022/12/18 07:25:39;;;;;;;18.87;12.17;;;2.20;76.60;1.80;97623.00;;;;5074649;28;20473;-90
2022/12/18 07:28:06;;;;;;;18.17;12.30;;;2.30;75.90;1.80;97621.00;;;;5075652;28;20466;-90
2022/12/18 07:30:34;;;;;;;19.17;12.30;;;2.20;75.80;1.80;97613.00;;;;5078100;28;20458;-90
2022/12/18 07:33:01;;;;;;;18.00;12.10;;;2.20;75.70;1.70;97607.00;;;;5076055;28;20907;-90
2022/12/18 07:35:28;;;;;;;18.63;12.00;;;2.20;75.40;1.70;97613.00;;;;5078078;28;20511;-90
2022/12/18 07:37:59;;;;;;;18.20;12.50;;;2.50;75.50;1.70;97615.00;;;;5075304;28;20504;-90
2022/12/18 07:40:27;;;;;;;20.23;12.97;;;3.10;75.70;1.60;97623.00;;;;5078128;28;20456;-89
2022/12/18 07:42:54;;;;;;;18.83;11.70;;;2.60;75.60;1.60;97623.00;;;;5076998;28;20558;-89
2022/12/18 07:45:21;;;;;;;19.17;12.37;;;2.10;75.10;1.50;97623.00;;;;5078567;28;20516;-90
2022/12/18 07:47:48;;;;;;;19.00;12.23;;;2.00;75.20;1.50;97609.00;;;;5078209;28;20554;-89
2022/12/18 07:50:16;;;;;;;18.10;11.53;;;2.00;75.30;1.50;97607.00;;;;5076425;28;20541;-90
2022/12/18 07:52:43;;;;;;;18.80;12.87;;;2.00;75.70;1.50;97604.00;;;;5077027;28;20711;-91
2022/12/18 07:55:12;;;;;;;18.33;11.50;;;2.10;75.30;1.50;97612.00;;;;5079227;28;20450;-91
2022/12/18 07:57:39;;;;;;;20.33;12.70;;;3.10;75.90;1.40;97629.00;;;;5077080;28;20523;-90
2022/12/18 08:00:08;;;;;;;21.93;12.57;;;3.40;76.30;1.40;97617.00;;;;5076366;28;20459;-90
2022/12/18 08:02:35;;;;;;;20.03;12.97;;;1.90;75.30;1.40;97624.00;;;;5077710;28;20566;-90
2022/12/18 08:05:02;;;;;;;22.03;13.87;;;2.80;75.70;1.30;97603.00;;;;5077989;28;20900;-90
2022/12/18 08:07:29;;;;;;;20.23;12.67;;;2.30;75.40;1.30;97613.00;;;;5073447;28;20461;-90
2022/12/18 08:09:56;;;;;;;18.40;12.10;;;1.80;76.10;1.30;97620.00;;;;5077208;28;20481;-90
2022/12/18 08:12:25;;;;;;;19.90;13.67;;;2.10;75.90;1.30;97604.00;;;;5074968;28;20489;-90
2022/12/18 08:14:52;;;;;;;20.27;12.13;;;3.10;76.40;1.30;97603.00;;;;5077450;28;20437;-92
2022/12/18 08:17:21;;;;;;;19.90;12.60;;;1.80;75.60;1.30;97600.00;;;;5080243;28;20951;-92
2022/12/18 08:20:06;;;;;;;17.50;12.20;;;2.60;76.60;1.40;97599.00;;;;5077334;28;20532;-88
2022/12/18 08:22:36;;;;;;;20.63;13.00;;;1.70;76.20;1.40;97622.00;;;;5052324;28;20957;-89
2022/12/18 08:25:03;;;;;;;19.30;13.13;;;1.90;76.60;1.50;97628.00;;;;5064323;28;20537;-93
2022/12/18 08:27:32;;;;;;;22.03;13.70;;;3.10;77.50;1.60;97623.00;;;;5076323;28;20526;-91
2022/12/18 08:30:00;;;;;;;22.23;13.57;;;1.90;76.40;1.60;97649.00;;;;5075827;28;20473;-92
2022/12/18 08:32:29;;;;;;;20.63;12.83;;;2.40;76.80;1.60;97651.00;;;;5072756;28;20455;-91
2022/12/18 08:34:56;;;;;;;19.57;13.03;;;2.00;76.20;1.60;97638.00;;;;5074204;28;21175;-92
2022/12/18 08:37:23;;;;;;;19.57;13.33;;;3.30;76.90;1.60;97637.00;;;;5075947;28;20450;-91
2022/12/18 08:39:51;;;;;;;22.10;13.27;;;2.20;76.10;1.60;97634.00;;;;5078209;28;20469;-92
2022/12/18 08:45:06;;;;;;;18.67;12.30;;;2.00;75.80;1.60;97654.00;;;;5073273;28;20473;-91
2022/12/18 08:47:34;;;;;;;19.23;12.57;;;2.00;75.90;1.70;97647.00;;;;5078460;28;20454;-91
2022/12/18 08:50:01;;;;;;;21.33;13.23;;;2.00;76.10;1.70;97646.00;;;;5074746;28;20547;-92
2022/12/18 08:52:28;;;;;;;21.57;14.20;;;2.00;76.40;1.70;97648.00;;;;5073995;28;20845;-90
2022/12/18 08:54:55;;;;;;;21.83;13.97;;;2.00;76.40;1.70;97660.00;;;;5074091;28;20914;-91
2022/12/18 08:57:23;;;;;;;19.37;12.83;;;2.10;76.30;1.80;97658.00;;;;5078582;28;20531;-93
2022/12/18 08:59:53;;;;;;;23.80;14.27;;;2.60;76.90;1.70;97658.00;;;;5074201;28;20536;-91
2022/12/18 09:02:27;;;;;;;19.17;13.50;;;3.40;77.40;1.80;97663.00;;;;5079411;28;20450;-92
2022/12/18 09:04:54;;;;;;;20.07;13.03;;;2.20;76.70;1.90;97663.00;;;;5076473;28;20480;-91
2022/12/18 09:07:26;;;;;;;22.37;13.77;;;3.50;78.30;1.90;97654.00;;;;5076155;28;20452;-91
2022/12/18 09:09:55;;;;;;;22.13;14.17;;;2.20;76.60;2.00;97656.00;;;;5077223;28;21484;-94
2022/12/18 09:12:28;;;;;;;23.03;14.83;;;2.10;76.50;2.00;97659.00;;;;5075977;28;20449;-93
2022/12/18 09:15:02;;;;;;;20.70;13.07;;;2.30;76.40;2.00;97655.00;;;;5078788;28;20972;-92
2022/12/18 09:17:34;;;;;;;22.33;14.50;;;3.30;76.70;1.90;97651.00;;;;5078758;28;20537;-92
2022/12/18 09:23:10;;;;;;;22.37;13.73;;;3.70;76.70;2.00;97666.00;;;;5073772;28;21016;-93
2022/12/18 09:25:40;;;;;;;18.80;12.47;;;3.60;76.20;2.00;97641.00;;;;5072397;28;20830;-90
2022/12/18 09:28:16;;;;;;;22.07;13.07;;;2.30;75.80;1.90;97649.00;;;;5079214;28;20486;-91
2022/12/18 09:30:56;;;;;;;21.17;13.83;;;2.30;75.50;1.90;97657.00;;;;5078912;28;20445;-91
2022/12/18 09:33:33;;;;;;;20.37;12.60;;;3.70;76.70;1.90;97642.00;;;;5076907;28;20449;-89
2022/12/18 09:36:04;;;;;;;18.57;12.53;;;2.30;75.50;1.90;97631.00;;;;5079318;28;20498;-90
2022/12/18 09:38:37;;;;;;;20.33;13.50;;;2.40;75.60;1.90;97653.00;;;;5079994;28;21222;-91
2022/12/18 09:41:32;;;;;;;21.07;13.40;;;2.80;75.80;1.90;97645.00;;;;5077534;28;20560;-90
2022/12/18 09:44:06;;;;;;;22.63;14.03;;;2.30;75.20;1.80;97649.00;;;;5076281;28;20438;-91
2022/12/18 09:46:48;;;;;;;23.70;14.17;;;2.80;75.60;1.80;97652.00;;;;5078422;28;20551;-91
2022/12/18 09:49:26;;;;;;;20.23;13.57;;;2.80;75.50;1.80;97635.00;;;;5076706;28;20505;-91
2022/12/18 09:52:19;;;;;;;22.83;14.37;;;3.20;76.00;1.80;97637.00;;;;5080980;28;20453;-92
2022/12/18 09:55:05;;;;;;;20.43;13.13;;;2.20;75.30;1.80;97630.00;;;;5080366;28;21051;-92
2022/12/18 09:57:38;;;;;;;20.73;13.93;;;2.20;75.40;1.70;97632.00;;;;5075992;28;20450;-91
2022/12/18 10:00:21;;;;;;;21.03;13.87;;;3.30;75.80;1.70;97609.00;;;;5070661;28;20791;-91
2022/12/18 10:02:55;;;;;;;21.33;13.80;;;3.50;76.20;1.70;97623.00;;;;5072381;28;20598;-91
2022/12/18 10:05:40;;;;;;;21.13;13.80;;;3.10;77.20;1.80;97625.00;;;;5071526;28;20477;-90
2022/12/18 10:08:20;;;;;;;21.67;14.70;;;2.10;75.70;1.80;97619.00;;;;5067383;28;20485;-91
2022/12/18 10:10:53;;;;;;;21.83;13.60;;;3.50;76.70;1.80;97609.00;;;;5072505;28;20476;-90
2022/12/18 10:13:40;;;;;;;24.67;15.00;;;2.10;75.90;1.80;97606.00;;;;5066832;28;20461;-91
2022/12/18 10:16:17;;;;;;;19.43;12.90;;;2.30;75.90;1.90;97610.00;;;;5068698;28;20456;-93
2022/12/18 10:19:11;;;;;;;19.60;13.13;;;2.20;76.60;1.90;97616.00;;;;5078109;28;20476;-94
2022/12/18 10:21:52;;;;;;;19.23;12.90;;;2.10;75.70;1.90;97593.00;;;;5090174;28;20446;-92
2022/12/18 10:24:33;;;;;;;20.23;13.00;;;2.20;75.80;1.90;97596.00;;;;5083557;28;20482;-92
2022/12/18 10:27:16;;;;;;;21.10;13.93;;;1.40;75.40;2.00;97601.00;;;;5087264;28;20476;-92
2022/12/18 10:29:45;;;;;;;20.20;12.97;;;3.10;76.40;2.00;97594.00;;;;5079481;28;20556;-92
2022/12/18 10:32:18;;;;;;;20.30;12.83;;;2.30;76.00;2.00;97607.00;;;;5072316;28;20454;-92
2022/12/18 10:35:08;;;;;;;23.00;14.40;;;3.20;76.60;2.10;97596.00;;;;5075915;28;20454;-92
2022/12/18 10:37:58;;;;;;;20.57;14.13;;;3.70;77.00;2.10;97585.00;;;;5075844;28;20453;-91
2022/12/18 10:40:25;;;;;;;21.07;13.67;;;3.90;77.30;2.10;97604.00;;;;5078772;28;20445;-91
2022/12/18 10:43:07;;;;;;;21.47;14.07;;;2.40;76.20;2.10;97594.00;;;;5073297;28;20449;-91
2022/12/18 10:45:36;;;;;;;19.60;13.30;;;2.50;75.80;2.20;97586.00;;;;5077392;28;20481;-90
2022/12/18 10:48:25;;;;;;;20.50;14.27;;;3.40;76.90;2.20;97614.00;;;;5071363;28;20466;-91
2022/12/18 10:51:04;;;;;;;18.30;12.30;;;2.50;76.60;2.30;97609.00;;;;5070665;28;20472;-90
2022/12/18 10:53:38;;;;;;;19.20;13.33;;;2.60;76.80;2.40;97595.00;;;;5073926;28;20521;-90
2022/12/18 10:56:22;;;;;;;18.80;13.00;;;2.50;76.60;2.50;97608.00;;;;5072221;28;20466;-92
2022/12/18 10:59:00;;;;;;;18.80;13.43;;;2.20;76.40;2.50;97616.00;;;;5078655;28;20563;-91
2022/12/18 11:01:48;;;;;;;17.90;12.57;;;2.70;76.30;2.50;97614.00;;;;5077135;28;20454;-91
2022/12/18 11:04:42;;;;;;;;;;;;;;;;;;;;;
2022/12/18 11:07:11;;;;;;;18.57;12.83;;;3.60;76.70;2.50;97594.00;;;;5073341;28;21079;-91
2022/12/18 11:09:42;;;;;;;17.83;12.63;;;2.90;76.10;2.50;97608.00;;;;5074812;28;20534;-89
2022/12/18 11:12:20;;;;;;;19.20;12.77;;;2.70;75.50;2.50;97598.00;;;;5074077;28;20937;-91
2022/12/18 11:14:59;;;;;;;19.03;12.27;;;3.70;76.20;2.50;97605.00;;;;5078293;28;20441;-91
2022/12/18 11:17:34;;;;;;;18.23;11.00;;;2.80;75.40;2.50;97614.00;;;;5071978;28;21320;-91
2022/12/18 11:20:22;;;;;;;19.00;11.60;;;3.50;76.10;2.50;97611.00;;;;5079099;28;20572;-91
2022/12/18 11:23:00;;;;;;;18.80;11.50;;;2.80;75.20;2.50;97611.00;;;;5076690;28;20458;-89